Time;durP1;ratioP1;P1;durP2;ratioP2;P2;SDS_P1;SDS_P2;PMS_P1;PMS_P2;Temp;Humidity;BMP_temperature;BMP_pressure;BME280_temperature;BME280_humidity;BME280_pressure;Samples;Min_cycle;Max_cycle;Signal;HPM_P1;HPM_P2
2024/03/10 00:00:53;;;;;;;;;2.00;2.00;;;;;;;;5020828;28;45300;-78
2024/03/10 00:03:18;;;;;;;;;1.67;1.67;;;;;;;;5021034;28;45341;-78
2024/03/10 00:05:43;;;;;;;;;3.00;3.00;;;;;;;;5020703;28;45340;-78
2024/03/10 00:08:09;;;;;;;;;2.00;2.00;;;;;;;;5020828;28;45867;-78
2024/03/10 00:10:37;;;;;;;;;1.00;1.00;;;;;;;;5020525;28;45282;-78
2024/03/10 00:13:03;;;;;;;;;2.00;1.00;;;;;;;;5020828;28;45416;-79
2024/03/10 00:15:30;;;;;;;;;2.00;2.00;;;;;;;;5020732;28;45329;-78
2024/03/10 00:17:55;;;;;;;;;1.00;1.00;;;;;;;;5020642;28;46136;-78
2024/03/10 00:20:20;;;;;;;;;1.00;1.00;;;;;;;;5020629;28;45384;-78
2024/03/10 00:22:47;;;;;;;;;0.33;0.33;;;;;;;;5020910;28;45467;-78
2024/03/10 00:25:13;;;;;;;;;0.33;0.33;;;;;;;;5015353;28;45352;-78
2024/03/10 00:27:38;;;;;;;;;1.00;1.00;;;;;;;;5000155;28;45830;-78
2024/03/10 00:30:05;;;;;;;;;0.00;0.00;;;;;;;;4982199;28;45348;-78
2024/03/10 00:32:31;;;;;;;;;1.67;0.00;;;;;;;;4999791;28;45484;-78
2024/03/10 00:34:56;;;;;;;;;0.00;0.00;;;;;;;;4982546;28;46929;-78
2024/03/10 00:37:22;;;;;;;;;1.00;1.00;;;;;;;;4982463;28;47448;-78
2024/03/10 00:39:47;;;;;;;;;1.00;0.00;;;;;;;;5000442;28;45255;-78
2024/03/10 00:42:12;;;;;;;;;1.00;1.00;;;;;;;;4983060;28;45155;-78
2024/03/10 00:44:38;;;;;;;;;0.00;0.00;;;;;;;;5000374;28;45562;-78
2024/03/10 00:47:03;;;;;;;;;0.67;0.67;;;;;;;;5000523;28;45295;-78
2024/03/10 00:49:29;;;;;;;;;0.00;0.00;;;;;;;;5000464;28;45339;-78
2024/03/10 00:51:54;;;;;;;;;0.00;0.00;;;;;;;;5000532;28;45352;-78
2024/03/10 00:54:19;;;;;;;;;1.00;1.00;;;;;;;;4982646;28;47208;-78
2024/03/10 00:56:44;;;;;;;;;2.00;0.33;;;;;;;;4999917;28;45331;-78
2024/03/10 00:59:10;;;;;;;;;1.00;1.00;;;;;;;;5000448;28;45337;-78
2024/03/10 01:01:36;;;;;;;;;0.00;0.00;;;;;;;;5000449;28;45389;-78
2024/03/10 01:04:03;;;;;;;;;2.00;1.00;;;;;;;;4999391;28;45393;-78
2024/03/10 01:06:28;;;;;;;;;1.00;1.00;;;;;;;;5000023;28;46187;-78
2024/03/10 01:08:53;;;;;;;;;0.00;0.00;;;;;;;;5000094;28;45262;-78
2024/03/10 01:11:18;;;;;;;;;1.00;0.00;;;;;;;;4982256;28;45373;-78
2024/03/10 01:13:45;;;;;;;;;1.00;1.00;;;;;;;;5000067;28;45283;-78
2024/03/10 01:16:10;;;;;;;;;0.00;0.00;;;;;;;;4999990;28;46226;-78
2024/03/10 01:18:37;;;;;;;;;0.00;0.00;;;;;;;;4999958;28;45350;-79
2024/03/10 01:21:02;;;;;;;;;0.00;0.00;;;;;;;;5000075;28;45279;-79
2024/03/10 01:23:27;;;;;;;;;0.00;0.00;;;;;;;;4982256;28;47376;-78
2024/03/10 01:25:53;;;;;;;;;0.00;0.00;;;;;;;;4999806;28;45313;-78
2024/03/10 01:28:18;;;;;;;;;0.00;0.00;;;;;;;;4982203;28;45291;-78
2024/03/10 01:30:43;;;;;;;;;2.00;0.00;;;;;;;;4999797;28;45230;-78
2024/03/10 01:33:08;;;;;;;;;1.00;1.00;;;;;;;;4999791;28;45346;-78
2024/03/10 01:35:34;;;;;;;;;0.67;0.67;;;;;;;;4981755;28;48677;-78
2024/03/10 01:37:59;;;;;;;;;1.00;1.00;;;;;;;;4999682;28;45315;-79
2024/03/10 01:40:24;;;;;;;;;0.00;0.00;;;;;;;;4999589;28;45326;-80
2024/03/10 01:42:55;;;;;;;;;0.33;0.33;;;;;;;;4999810;28;45261;-79
2024/03/10 01:45:20;;;;;;;;;0.00;0.00;;;;;;;;4999653;28;46115;-79
2024/03/10 01:47:47;;;;;;;;;0.00;0.00;;;;;;;;4999675;28;45280;-79
2024/03/10 01:50:12;;;;;;;;;0.33;0.00;;;;;;;;4999592;28;45229;-79
2024/03/10 01:52:38;;;;;;;;;0.00;0.00;;;;;;;;4999641;28;45336;-78
2024/03/10 01:55:06;;;;;;;;;0.00;0.00;;;;;;;;4981727;28;47211;-79
2024/03/10 01:57:31;;;;;;;;;0.00;0.00;;;;;;;;5008245;28;45305;-79
2024/03/10 01:59:57;;;;;;;;;0.00;0.00;;;;;;;;5019378;28;45278;-79
2024/03/10 02:02:22;;;;;;;;;0.00;0.00;;;;;;;;5019261;28;45290;-79
2024/03/10 02:04:49;;;;;;;;;0.00;0.00;;;;;;;;5019035;28;45470;-78
2024/03/10 02:07:16;;;;;;;;;0.00;0.00;;;;;;;;5019248;28;45375;-78
2024/03/10 02:09:41;;;;;;;;;0.00;0.00;;;;;;;;5019064;28;45231;-79
2024/03/10 02:12:06;;;;;;;;;0.67;0.67;;;;;;;;5001029;28;46901;-79
2024/03/10 02:14:33;;;;;;;;;0.00;0.00;;;;;;;;5009558;28;47297;-79
2024/03/10 02:16:58;;;;;;;;;0.00;0.00;;;;;;;;4983105;28;45379;-79
2024/03/10 02:19:24;;;;;;;;;0.00;0.00;;;;;;;;5002631;28;45341;-79
2024/03/10 02:21:49;;;;;;;;;0.00;0.00;;;;;;;;5001719;28;45424;-78
2024/03/10 02:24:26;;;;;;;;;0.00;0.00;;;;;;;;5002646;28;45339;-79
2024/03/10 02:26:51;;;;;;;;;0.00;0.00;;;;;;;;5002647;28;45378;-78
2024/03/10 02:29:21;;;;;;;;;0.00;0.00;;;;;;;;5002714;28;45479;-78
2024/03/10 02:48:10;;;;;;;;;0.00;0.00;;;;;;;;4994308;28;45503;-78
2024/03/10 02:50:35;;;;;;;;;0.00;0.00;;;;;;;;5000615;28;45497;-78
2024/03/10 02:53:01;;;;;;;;;0.00;0.00;;;;;;;;5002211;28;45431;-78
2024/03/10 02:55:26;;;;;;;;;0.00;0.00;;;;;;;;5001960;28;45337;-79
2024/03/10 02:57:52;;;;;;;;;0.00;0.00;;;;;;;;5013576;28;45254;-79
2024/03/10 03:00:17;;;;;;;;;0.00;0.00;;;;;;;;5022168;28;45282;-78
2024/03/10 03:02:43;;;;;;;;;0.00;0.00;;;;;;;;5004083;28;47391;-78
2024/03/10 03:05:08;;;;;;;;;0.00;0.00;;;;;;;;5021882;28;45428;-78
2024/03/10 03:07:33;;;;;;;;;1.00;0.00;;;;;;;;5021798;28;45241;-78
2024/03/10 03:09:59;;;;;;;;;0.00;0.00;;;;;;;;5021493;28;45490;-79
2024/03/10 03:12:24;;;;;;;;;0.00;0.00;;;;;;;;5021773;28;45436;-78
2024/03/10 03:14:49;;;;;;;;;0.00;0.00;;;;;;;;5021765;28;45332;-78
2024/03/10 03:17:14;;;;;;;;;0.00;0.00;;;;;;;;5003686;28;45198;-79
2024/03/10 03:19:40;;;;;;;;;1.00;0.00;;;;;;;;5021760;28;45330;-78
2024/03/10 03:22:06;;;;;;;;;0.00;0.00;;;;;;;;5003643;28;46469;-78
2024/03/10 03:24:31;;;;;;;;;1.00;1.00;;;;;;;;5020802;28;45612;-78
2024/03/10 03:26:57;;;;;;;;;0.00;0.00;;;;;;;;5020681;28;45500;-78
2024/03/10 03:29:22;;;;;;;;;1.00;0.00;;;;;;;;5021668;28;45234;-79
2024/03/10 03:31:47;;;;;;;;;0.00;0.00;;;;;;;;5021306;28;45217;-78
2024/03/10 03:34:12;;;;;;;;;0.00;0.00;;;;;;;;5003541;28;47374;-79
2024/03/10 03:36:38;;;;;;;;;1.00;1.00;;;;;;;;5003320;28;45285;-78
2024/03/10 03:39:06;;;;;;;;;0.00;0.00;;;;;;;;5021447;28;45365;-79
2024/03/10 03:41:31;;;;;;;;;0.00;0.00;;;;;;;;5003206;28;46464;-79
2024/03/10 03:43:56;;;;;;;;;0.00;0.00;;;;;;;;5020236;28;46325;-79
2024/03/10 03:46:21;;;;;;;;;0.00;0.00;;;;;;;;5003310;28;46037;-79
2024/03/10 03:48:47;;;;;;;;;0.00;0.00;;;;;;;;5021451;28;45343;-78
2024/03/10 03:51:12;;;;;;;;;0.00;0.00;;;;;;;;5021330;28;45337;-78
2024/03/10 03:53:37;;;;;;;;;0.00;0.00;;;;;;;;5021273;28;46363;-79
2024/03/10 03:56:02;;;;;;;;;0.00;0.00;;;;;;;;5020886;28;45332;-78
2024/03/10 03:58:28;;;;;;;;;0.00;0.00;;;;;;;;5003793;28;45243;-79
2024/03/10 04:00:53;;;;;;;;;0.00;0.00;;;;;;;;5001185;28;45327;-79
2024/03/10 04:03:18;;;;;;;;;0.00;0.00;;;;;;;;5001131;28;45427;-79
2024/03/10 04:05:43;;;;;;;;;0.00;0.00;;;;;;;;5000619;28;45325;-79
2024/03/10 04:08:11;;;;;;;;;0.00;0.00;;;;;;;;5001116;28;45402;-79
2024/03/10 04:10:36;;;;;;;;;0.00;0.00;;;;;;;;4983012;28;46192;-79
2024/03/10 04:13:05;;;;;;;;;0.00;0.00;;;;;;;;4982992;28;47265;-79
2024/03/10 04:15:31;;;;;;;;;0.00;0.00;;;;;;;;5001044;28;45363;-79
2024/03/10 04:17:56;;;;;;;;;0.00;0.00;;;;;;;;5000920;28;45471;-79
2024/03/10 04:20:21;;;;;;;;;0.00;0.00;;;;;;;;4982977;28;47233;-79
2024/03/10 04:22:48;;;;;;;;;0.00;0.00;;;;;;;;5000899;28;45344;-79
2024/03/10 04:25:14;;;;;;;;;0.00;0.00;;;;;;;;5000743;28;45348;-79
2024/03/10 04:27:40;;;;;;;;;0.00;0.00;;;;;;;;5000982;28;45245;-79
2024/03/10 04:30:06;;;;;;;;;0.00;0.00;;;;;;;;4982818;28;47182;-79
2024/03/10 04:32:31;;;;;;;;;0.00;0.00;;;;;;;;4982834;28;47342;-79
2024/03/10 04:34:57;;;;;;;;;0.00;0.00;;;;;;;;5000614;28;45301;-78
2024/03/10 04:37:23;;;;;;;;;0.00;0.00;;;;;;;;5000631;28;45344;-78
2024/03/10 04:39:48;;;;;;;;;0.00;0.00;;;;;;;;4999440;28;45262;-79
2024/03/10 04:42:15;;;;;;;;;0.00;0.00;;;;;;;;5000602;28;45486;-79
2024/03/10 04:44:40;;;;;;;;;0.00;0.00;;;;;;;;4982403;28;45411;-78
2024/03/10 04:47:05;;;;;;;;;0.00;0.00;;;;;;;;5000492;28;45268;-78
2024/03/10 04:49:33;;;;;;;;;0.00;0.00;;;;;;;;5000096;28;45372;-79
2024/03/10 04:51:58;;;;;;;;;0.00;0.00;;;;;;;;5000161;28;45419;-78
2024/03/10 04:54:23;;;;;;;;;0.00;0.00;;;;;;;;4982303;28;45329;-79
2024/03/10 04:56:49;;;;;;;;;0.00;0.00;;;;;;;;4985804;28;45335;-79
2024/03/10 04:59:14;;;;;;;;;0.00;0.00;;;;;;;;5020129;28;45501;-78
2024/03/10 05:01:39;;;;;;;;;0.00;0.00;;;;;;;;5020023;28;46265;-79
2024/03/10 05:04:05;;;;;;;;;0.00;0.00;;;;;;;;5019985;28;45296;-79
2024/03/10 05:06:30;;;;;;;;;0.00;0.00;;;;;;;;5002315;28;45322;-79
2024/03/10 05:08:55;;;;;;;;;0.00;0.00;;;;;;;;4997080;28;45995;-78
2024/03/10 05:11:21;;;;;;;;;0.00;0.00;;;;;;;;5018643;28;45324;-78
2024/03/10 05:13:46;;;;;;;;;0.00;0.00;;;;;;;;5019168;28;45314;-79
2024/03/10 05:16:12;;;;;;;;;0.00;0.00;;;;;;;;5019439;28;45302;-78
2024/03/10 05:18:37;;;;;;;;;0.00;0.00;;;;;;;;5019710;28;45459;-79
2024/03/10 05:21:03;;;;;;;;;0.00;0.00;;;;;;;;5019768;28;45324;-79
2024/03/10 05:23:28;;;;;;;;;0.00;0.00;;;;;;;;5019898;28;45268;-79
2024/03/10 05:25:53;;;;;;;;;1.00;0.00;;;;;;;;5001957;28;45275;-79
2024/03/10 05:28:18;;;;;;;;;0.33;0.00;;;;;;;;5019769;28;45367;-78
2024/03/10 05:30:44;;;;;;;;;0.00;0.00;;;;;;;;5019604;28;45292;-79
2024/03/10 05:33:09;;;;;;;;;1.00;0.00;;;;;;;;5019583;28;45344;-79
2024/03/10 05:35:35;;;;;;;;;0.00;0.00;;;;;;;;5019800;28;45182;-79
2024/03/10 05:38:00;;;;;;;;;0.00;0.00;;;;;;;;5019367;28;45443;-79
2024/03/10 05:40:25;;;;;;;;;0.00;0.00;;;;;;;;5019489;28;46483;-79
2024/03/10 05:42:51;;;;;;;;;0.00;0.00;;;;;;;;5019573;28;45239;-79
2024/03/10 05:45:18;;;;;;;;;0.00;0.00;;;;;;;;4999382;28;45206;-79
2024/03/10 05:47:43;;;;;;;;;0.00;0.00;;;;;;;;4999186;28;45348;-79
2024/03/10 05:50:08;;;;;;;;;0.00;0.00;;;;;;;;4998497;28;45390;-79
2024/03/10 05:52:34;;;;;;;;;0.00;0.00;;;;;;;;4999656;28;45523;-79
2024/03/10 05:54:59;;;;;;;;;0.00;0.00;;;;;;;;4999604;28;45598;-79
2024/03/10 05:57:25;;;;;;;;;0.00;0.00;;;;;;;;4989733;28;46111;-79
2024/03/10 05:59:50;;;;;;;;;0.00;0.00;;;;;;;;5001551;28;48414;-79
2024/03/10 06:02:16;;;;;;;;;0.00;0.00;;;;;;;;5001204;28;45321;-79
2024/03/10 06:04:41;;;;;;;;;0.00;0.00;;;;;;;;5019375;28;45479;-79
2024/03/10 06:07:06;;;;;;;;;0.00;0.00;;;;;;;;5019263;28;45313;-79
2024/03/10 06:09:34;;;;;;;;;1.00;0.00;;;;;;;;5018687;28;45310;-79
2024/03/10 06:12:00;;;;;;;;;0.00;0.00;;;;;;;;5018957;28;45545;-79
2024/03/10 06:14:25;;;;;;;;;0.00;0.00;;;;;;;;5019229;28;45225;-79
2024/03/10 06:16:50;;;;;;;;;0.00;0.00;;;;;;;;5019190;28;45559;-79
2024/03/10 06:27:27;;;;;;;;;0.67;0.67;;;;;;;;5018796;28;45312;-79
2024/03/10 06:29:52;;;;;;;;;0.00;0.00;;;;;;;;5018797;28;45539;-79
2024/03/10 06:32:17;;;;;;;;;2.00;1.00;;;;;;;;5019069;28;45378;-79
2024/03/10 06:34:43;;;;;;;;;0.00;0.00;;;;;;;;5001095;28;45515;-79
2024/03/10 06:37:08;;;;;;;;;1.67;1.67;;;;;;;;5018606;28;45588;-79
2024/03/10 06:39:33;;;;;;;;;0.00;0.00;;;;;;;;4997178;28;46317;-79
2024/03/10 06:41:58;;;;;;;;;0.00;0.00;;;;;;;;4998923;28;45258;-79
2024/03/10 06:44:23;;;;;;;;;0.33;0.00;;;;;;;;4998797;28;45353;-79
2024/03/10 06:46:49;;;;;;;;;0.33;0.33;;;;;;;;4996283;28;45559;-80
2024/03/10 06:49:17;;;;;;;;;0.00;0.00;;;;;;;;4993207;28;46171;-79
2024/03/10 06:51:42;;;;;;;;;0.00;0.00;;;;;;;;4997926;28;45389;-79
2024/03/10 06:54:08;;;;;;;;;0.00;0.00;;;;;;;;4986654;28;45444;-79
2024/03/10 06:56:33;;;;;;;;;1.67;1.67;;;;;;;;5017272;28;45716;-80
2024/03/10 06:58:58;;;;;;;;;1.00;1.00;;;;;;;;4998118;28;45380;-78
2024/03/10 07:01:23;;;;;;;;;1.67;1.67;;;;;;;;4998545;28;45404;-80
2024/03/10 07:03:49;;;;;;;;;2.00;2.00;;;;;;;;5000857;28;45413;-78
2024/03/10 07:06:15;;;;;;;;;2.00;2.00;;;;;;;;4984256;28;45790;-79
2024/03/10 07:08:41;;;;;;;;;1.00;1.00;;;;;;;;4997470;28;45464;-80
2024/03/10 07:11:08;;;;;;;;;1.67;1.67;;;;;;;;5001459;28;45341;-79
2024/03/10 07:13:33;;;;;;;;;1.33;1.33;;;;;;;;5001649;28;45352;-80
2024/03/10 07:15:58;;;;;;;;;1.67;1.67;;;;;;;;4983213;28;45930;-79
2024/03/10 07:18:23;;;;;;;;;2.00;2.00;;;;;;;;5001500;28;45455;-80
2024/03/10 07:20:49;;;;;;;;;1.00;1.00;;;;;;;;5001695;28;45291;-81
2024/03/10 07:23:14;;;;;;;;;1.33;1.33;;;;;;;;5001693;28;45298;-80
2024/03/10 07:25:40;;;;;;;;;2.00;2.00;;;;;;;;4983761;28;46124;-80
2024/03/10 07:28:05;;;;;;;;;2.67;2.67;;;;;;;;5000450;28;45293;-80
2024/03/10 07:30:31;;;;;;;;;1.33;1.33;;;;;;;;5001028;28;45405;-81
2024/03/10 07:32:56;;;;;;;;;3.00;3.00;;;;;;;;5001031;28;45311;-80
2024/03/10 07:35:22;;;;;;;;;2.67;2.67;;;;;;;;4983103;28;46105;-80
2024/03/10 07:37:47;;;;;;;;;2.00;2.00;;;;;;;;4994488;28;46277;-81
2024/03/10 07:40:17;;;;;;;;;3.00;3.00;;;;;;;;5000956;28;45250;-81
2024/03/10 07:42:48;;;;;;;;;2.33;2.33;;;;;;;;4983826;28;45354;-78
2024/03/10 07:45:17;;;;;;;;;1.33;1.33;;;;;;;;5000327;28;45538;-79
2024/03/10 07:47:43;;;;;;;;;3.67;2.67;;;;;;;;4983076;28;47182;-78
2024/03/10 07:50:09;;;;;;;;;2.00;2.00;;;;;;;;4983230;28;45301;-79
2024/03/10 07:52:35;;;;;;;;;3.00;3.00;;;;;;;;5001117;28;45406;-79
2024/03/10 07:55:01;;;;;;;;;1.00;1.00;;;;;;;;4983129;28;47276;-79
2024/03/10 07:57:26;;;;;;;;;3.00;3.00;;;;;;;;4991378;28;46056;-80
2024/03/10 07:59:52;;;;;;;;;3.67;3.67;;;;;;;;5020970;28;45316;-80
2024/03/10 08:02:18;;;;;;;;;1.00;1.00;;;;;;;;5021057;28;45375;-79
2024/03/10 08:04:43;;;;;;;;;1.00;1.00;;;;;;;;5020778;28;45317;-79
2024/03/10 08:07:08;;;;;;;;;0.67;0.67;;;;;;;;5020830;28;45383;-79
2024/03/10 08:09:33;;;;;;;;;0.67;0.67;;;;;;;;5020761;28;45358;-79
2024/03/10 08:11:58;;;;;;;;;1.33;1.33;;;;;;;;5020560;28;45328;-80
2024/03/10 08:14:24;;;;;;;;;1.00;1.00;;;;;;;;5020805;28;45349;-79
2024/03/10 08:16:49;;;;;;;;;1.00;1.00;;;;;;;;5002676;28;46518;-79
2024/03/10 08:19:14;;;;;;;;;1.00;1.00;;;;;;;;5020747;28;45380;-79
2024/03/10 08:21:40;;;;;;;;;1.00;1.00;;;;;;;;5020886;28;45389;-80
2024/03/10 08:24:09;;;;;;;;;0.33;0.33;;;;;;;;5020437;28;45356;-79
2024/03/10 08:26:34;;;;;;;;;0.67;0.67;;;;;;;;5020570;28;45328;-79
2024/03/10 08:29:00;;;;;;;;;1.00;1.00;;;;;;;;5021206;28;45263;-76
2024/03/10 08:31:25;;;;;;;;;1.00;1.00;;;;;;;;5002113;28;45398;-77
2024/03/10 08:33:50;;;;;;;;;1.00;1.00;;;;;;;;4982201;28;47298;-76
2024/03/10 08:36:16;;;;;;;;;0.33;0.33;;;;;;;;5000570;28;45626;-77
2024/03/10 08:38:41;;;;;;;;;1.00;1.00;;;;;;;;5000455;28;45309;-77
2024/03/10 08:41:07;;;;;;;;;0.00;0.00;;;;;;;;5000665;28;45269;-77
2024/03/10 08:43:33;;;;;;;;;1.00;1.00;;;;;;;;5000492;28;45613;-77
2024/03/10 08:46:00;;;;;;;;;0.00;0.00;;;;;;;;4982677;28;48360;-77
2024/03/10 08:48:25;;;;;;;;;1.00;1.00;;;;;;;;4979728;28;45741;-76
2024/03/10 08:50:50;;;;;;;;;0.00;0.00;;;;;;;;4997859;28;45284;-76
2024/03/10 08:53:15;;;;;;;;;0.00;0.00;;;;;;;;5000240;28;45532;-76
2024/03/10 08:55:41;;;;;;;;;0.00;0.00;;;;;;;;4982210;28;47192;-76
2024/03/10 08:58:06;;;;;;;;;0.00;0.00;;;;;;;;4996040;28;45349;-76
2024/03/10 09:00:31;;;;;;;;;0.33;0.33;;;;;;;;5019290;28;45410;-76
2024/03/10 09:02:57;;;;;;;;;0.00;0.00;;;;;;;;5020041;28;45479;-76
2024/03/10 09:05:23;;;;;;;;;0.00;0.00;;;;;;;;5020158;28;45583;-77
2024/03/10 09:07:49;;;;;;;;;1.00;0.00;;;;;;;;5002876;28;45226;-77
2024/03/10 09:10:14;;;;;;;;;0.00;0.00;;;;;;;;4967990;28;45527;-77
2024/03/10 09:12:39;;;;;;;;;1.00;1.00;;;;;;;;4991246;28;45395;-77
2024/03/10 09:15:05;;;;;;;;;1.00;1.00;;;;;;;;4999309;28;45316;-77
2024/03/10 09:17:30;;;;;;;;;2.00;2.00;;;;;;;;4999183;28;45537;-77
2024/03/10 09:19:56;;;;;;;;;0.67;0.67;;;;;;;;4998581;28;45249;-77
2024/03/10 09:22:21;;;;;;;;;1.00;0.00;;;;;;;;4995812;28;45348;-76
2024/03/10 09:24:49;;;;;;;;;0.00;0.00;;;;;;;;4996188;28;46458;-77
2024/03/10 09:27:15;;;;;;;;;1.33;1.33;;;;;;;;5010233;28;45404;-77
2024/03/10 09:29:40;;;;;;;;;3.00;3.00;;;;;;;;4999400;28;45345;-76
2024/03/10 09:32:06;;;;;;;;;3.00;3.00;;;;;;;;4999476;28;45357;-77
2024/03/10 09:34:31;;;;;;;;;2.33;1.00;;;;;;;;4999114;28;45980;-76
2024/03/10 09:36:56;;;;;;;;;0.00;0.00;;;;;;;;4999498;28;45350;-77
2024/03/10 09:39:24;;;;;;;;;0.00;0.00;;;;;;;;4999590;28;45275;-76
2024/03/10 09:41:51;;;;;;;;;1.00;0.00;;;;;;;;4998280;28;45633;-76
2024/03/10 09:44:19;;;;;;;;;0.00;0.00;;;;;;;;4981400;28;47312;-76
2024/03/10 09:46:48;;;;;;;;;1.00;1.00;;;;;;;;4985694;28;45342;-77
2024/03/10 09:49:16;;;;;;;;;1.00;1.00;;;;;;;;4980773;28;45449;-77
2024/03/10 09:51:43;;;;;;;;;0.00;0.00;;;;;;;;4998104;28;45412;-77
2024/03/10 09:54:10;;;;;;;;;0.00;0.00;;;;;;;;4980874;28;47276;-78
2024/03/10 09:56:36;;;;;;;;;0.00;0.00;;;;;;;;4973941;28;45716;-76
2024/03/10 09:59:03;;;;;;;;;0.67;0.67;;;;;;;;4997494;28;45341;-76
2024/03/10 10:01:29;;;;;;;;;0.00;0.00;;;;;;;;4996584;28;45221;-78
2024/03/10 10:03:57;;;;;;;;;0.00;0.00;;;;;;;;4984019;28;45297;-77
2024/03/10 10:06:27;;;;;;;;;0.67;0.33;;;;;;;;5009196;28;45645;-78
2024/03/10 10:08:55;;;;;;;;;0.00;0.00;;;;;;;;4994147;28;45432;-76
2024/03/10 10:11:23;;;;;;;;;0.67;0.67;;;;;;;;4997688;28;45577;-78
2024/03/10 10:14:06;;;;;;;;;2.33;2.00;;;;;;;;4997775;28;45720;-76
2024/03/10 10:16:32;;;;;;;;;3.00;3.00;;;;;;;;4991242;28;45472;-76
2024/03/10 10:18:57;;;;;;;;;3.00;3.00;;;;;;;;4981519;28;45314;-77
2024/03/10 10:21:24;;;;;;;;;1.67;1.67;;;;;;;;4980880;28;46253;-76
2024/03/10 10:23:49;;;;;;;;;1.00;1.00;;;;;;;;4999200;28;45467;-77
2024/03/10 10:26:14;;;;;;;;;2.33;2.00;;;;;;;;5000732;28;45265;-75
2024/03/10 10:28:42;;;;;;;;;4.00;4.00;;;;;;;;5001236;28;45454;-76
2024/03/10 10:31:13;;;;;;;;;2.00;2.00;;;;;;;;4984022;28;46058;-76
2024/03/10 10:33:41;;;;;;;;;2.00;2.00;;;;;;;;4980222;28;47671;-77
2024/03/10 10:36:07;;;;;;;;;1.67;1.67;;;;;;;;4980525;28;45247;-77
2024/03/10 10:38:37;;;;;;;;;4.00;2.00;;;;;;;;5001251;28;45441;-78
2024/03/10 10:41:05;;;;;;;;;2.00;2.00;;;;;;;;4998922;28;45482;-76
2024/03/10 10:43:32;;;;;;;;;3.00;2.00;;;;;;;;5000760;28;45571;-77
2024/03/10 10:45:58;;;;;;;;;3.33;2.67;;;;;;;;5000187;28;45774;-76
2024/03/10 10:48:23;;;;;;;;;3.00;2.33;;;;;;;;5001438;28;45441;-77
2024/03/10 10:50:49;;;;;;;;;2.00;2.00;;;;;;;;5001910;28;45572;-77
2024/03/10 10:53:15;;;;;;;;;4.33;3.00;;;;;;;;4984329;28;48069;-77
2024/03/10 10:55:41;;;;;;;;;3.00;3.00;;;;;;;;4999248;28;45236;-77
2024/03/10 10:58:07;;;;;;;;;3.00;2.00;;;;;;;;5002673;28;45366;-79
2024/03/10 11:00:33;;;;;;;;;4.00;3.00;;;;;;;;5002082;28;45411;-79
2024/03/10 11:03:16;;;;;;;;;3.67;3.33;;;;;;;;5002929;28;46115;-80
2024/03/10 11:06:01;;;;;;;;;3.00;3.00;;;;;;;;5002725;28;45338;-78
2024/03/10 11:08:28;;;;;;;;;3.00;3.00;;;;;;;;4984189;28;45421;-78
2024/03/10 11:10:54;;;;;;;;;4.00;3.33;;;;;;;;5001468;28;45355;-77
2024/03/10 11:13:20;;;;;;;;;3.00;3.00;;;;;;;;5001834;28;45470;-77
2024/03/10 11:15:45;;;;;;;;;7.67;7.33;;;;;;;;5001034;28;45322;-77
2024/03/10 11:18:26;;;;;;;;;4.67;4.67;;;;;;;;5002050;28;45415;-76
2024/03/10 11:20:55;;;;;;;;;4.00;4.00;;;;;;;;5002864;28;45502;-75
2024/03/10 11:23:24;;;;;;;;;4.67;4.67;;;;;;;;5002050;28;45358;-75
2024/03/10 11:25:50;;;;;;;;;4.67;4.67;;;;;;;;5001457;28;45238;-77
2024/03/10 11:28:19;;;;;;;;;7.33;6.67;;;;;;;;5001843;28;45384;-77
2024/03/10 11:30:44;;;;;;;;;4.00;4.00;;;;;;;;5001334;28;45438;-76
2024/03/10 11:33:11;;;;;;;;;5.67;5.00;;;;;;;;5001591;28;45309;-76
2024/03/10 11:35:36;;;;;;;;;4.00;4.00;;;;;;;;5001301;28;45256;-76
2024/03/10 11:38:04;;;;;;;;;5.33;5.33;;;;;;;;4983539;28;45336;-77
2024/03/10 11:40:30;;;;;;;;;4.67;4.67;;;;;;;;5000286;28;45455;-77
2024/03/10 11:42:58;;;;;;;;;5.00;4.33;;;;;;;;4983370;28;48390;-77
2024/03/10 11:45:25;;;;;;;;;6.00;5.00;;;;;;;;5001074;28;45397;-76
2024/03/10 11:47:50;;;;;;;;;6.00;6.00;;;;;;;;4983043;28;45475;-76
2024/03/10 11:50:15;;;;;;;;;4.33;4.00;;;;;;;;4983485;28;45376;-78
2024/03/10 11:52:40;;;;;;;;;4.33;4.33;;;;;;;;5000709;28;46709;-77
2024/03/10 11:55:11;;;;;;;;;5.00;5.00;;;;;;;;4980038;28;45441;-77
2024/03/10 11:57:36;;;;;;;;;6.00;5.00;;;;;;;;5009627;28;45446;-77
2024/03/10 12:00:05;;;;;;;;;4.00;4.00;;;;;;;;5010556;28;45321;-76
2024/03/10 12:02:30;;;;;;;;;4.00;4.00;;;;;;;;5001059;28;45487;-75
2024/03/10 12:04:55;;;;;;;;;5.00;5.00;;;;;;;;4999976;28;45390;-75
2024/03/10 12:07:21;;;;;;;;;8.00;7.33;;;;;;;;5000531;28;45515;-75
2024/03/10 12:09:47;;;;;;;;;6.00;6.00;;;;;;;;4981839;28;46446;-75
2024/03/10 12:12:13;;;;;;;;;7.00;6.33;;;;;;;;5000234;28;45500;-75
2024/03/10 12:14:41;;;;;;;;;5.00;3.67;;;;;;;;4999678;28;45298;-75
2024/03/10 12:17:11;;;;;;;;;5.00;5.00;;;;;;;;4996268;28;45588;-75
2024/03/10 12:19:36;;;;;;;;;9.00;9.00;;;;;;;;4982201;28;46404;-75
2024/03/10 12:22:01;;;;;;;;;5.00;5.00;;;;;;;;4982643;28;45805;-75
2024/03/10 12:24:28;;;;;;;;;5.67;5.67;;;;;;;;4982615;28;45254;-75
2024/03/10 12:26:53;;;;;;;;;3.67;3.00;;;;;;;;4987117;28;45450;-75
2024/03/10 12:29:21;;;;;;;;;5.67;5.67;;;;;;;;4992889;28;45561;-76
2024/03/10 12:31:48;;;;;;;;;6.67;5.67;;;;;;;;4975130;28;48124;-75
2024/03/10 12:34:13;;;;;;;;;5.67;5.67;;;;;;;;4982334;28;45939;-75
2024/03/10 12:36:38;;;;;;;;;4.00;4.00;;;;;;;;4999580;28;45366;-75
2024/03/10 12:39:11;;;;;;;;;6.00;6.00;;;;;;;;4999123;28;45473;-75
2024/03/10 12:41:36;;;;;;;;;5.67;5.00;;;;;;;;4999639;28;45408;-76
2024/03/10 12:44:01;;;;;;;;;8.00;6.67;;;;;;;;5007429;28;45353;-76
2024/03/10 12:46:28;;;;;;;;;8.00;8.00;;;;;;;;5001660;28;45301;-76
2024/03/10 12:48:53;;;;;;;;;6.00;6.00;;;;;;;;4983137;28;46187;-75
2024/03/10 12:51:19;;;;;;;;;10.00;10.00;;;;;;;;4999503;28;45394;-75
2024/03/10 12:53:45;;;;;;;;;12.00;12.00;;;;;;;;4990785;28;45262;-75
2024/03/10 12:56:12;;;;;;;;;10.00;10.00;;;;;;;;4979617;28;45365;-76
2024/03/10 12:58:38;;;;;;;;;8.67;8.00;;;;;;;;4987998;28;45695;-75
2024/03/10 13:01:04;;;;;;;;;9.33;7.00;;;;;;;;4995378;28;45947;-75
2024/03/10 13:03:29;;;;;;;;;8.00;7.00;;;;;;;;4999613;28;45325;-75
2024/03/10 13:05:55;;;;;;;;;8.67;7.67;;;;;;;;4998858;28;45647;-76
2024/03/10 13:08:20;;;;;;;;;8.33;8.33;;;;;;;;4998017;28;45285;-76
2024/03/10 13:10:46;;;;;;;;;6.33;6.33;;;;;;;;4980977;28;47311;-76
2024/03/10 13:13:12;;;;;;;;;8.00;8.00;;;;;;;;4981271;28;45786;-76
2024/03/10 13:15:37;;;;;;;;;9.67;9.00;;;;;;;;4981102;28;45450;-76
2024/03/10 13:18:07;;;;;;;;;8.00;8.00;;;;;;;;4999095;28;45336;-76
2024/03/10 13:20:33;;;;;;;;;8.00;8.00;;;;;;;;4987564;28;46246;-76
2024/03/10 13:22:58;;;;;;;;;7.00;7.00;;;;;;;;4974176;28;45329;-76
2024/03/10 13:25:23;;;;;;;;;7.67;6.33;;;;;;;;4996799;28;45692;-76
2024/03/10 13:27:49;;;;;;;;;7.67;7.67;;;;;;;;4998166;28;45705;-76
2024/03/10 13:30:14;;;;;;;;;9.00;9.00;;;;;;;;4998820;28;46345;-76
2024/03/10 13:32:40;;;;;;;;;8.00;7.00;;;;;;;;4999020;28;45353;-76
2024/03/10 13:35:08;;;;;;;;;6.33;5.33;;;;;;;;4999103;28;45295;-76
2024/03/10 13:37:34;;;;;;;;;6.33;6.33;;;;;;;;4981695;28;46122;-77
2024/03/10 13:40:04;;;;;;;;;6.33;6.33;;;;;;;;4981525;28;48319;-76
2024/03/10 13:42:29;;;;;;;;;8.00;8.00;;;;;;;;4999561;28;45297;-76
2024/03/10 13:44:55;;;;;;;;;5.33;5.33;;;;;;;;4999663;28;45250;-76
2024/03/10 13:47:20;;;;;;;;;8.33;8.33;;;;;;;;4999349;28;45278;-75
2024/03/10 13:49:45;;;;;;;;;5.67;5.67;;;;;;;;4981148;28;47205;-76
2024/03/10 13:52:15;;;;;;;;;5.67;5.67;;;;;;;;4998345;28;45291;-75
2024/03/10 13:54:42;;;;;;;;;7.67;7.67;;;;;;;;4981019;28;45699;-76
2024/03/10 13:57:09;;;;;;;;;7.67;7.67;;;;;;;;4980693;28;45380;-74
2024/03/10 13:59:35;;;;;;;;;8.00;7.00;;;;;;;;4998197;28;46034;-76
2024/03/10 14:02:00;;;;;;;;;5.33;5.33;;;;;;;;4998613;28;45293;-76
2024/03/10 14:04:26;;;;;;;;;7.00;7.00;;;;;;;;4998479;28;45305;-76
2024/03/10 14:06:51;;;;;;;;;7.33;7.33;;;;;;;;4981323;28;46399;-76
2024/03/10 14:09:17;;;;;;;;;9.00;8.00;;;;;;;;4998928;28;46689;-75
2024/03/10 14:11:42;;;;;;;;;7.00;7.00;;;;;;;;5000594;28;45418;-77
2024/03/10 14:14:07;;;;;;;;;8.33;8.33;;;;;;;;5002076;28;45463;-76
2024/03/10 14:16:33;;;;;;;;;7.67;7.67;;;;;;;;5002458;28;45447;-75
2024/03/10 14:18:58;;;;;;;;;7.67;7.67;;;;;;;;4984079;28;47193;-76
2024/03/10 14:21:25;;;;;;;;;10.33;9.67;;;;;;;;5001571;28;45520;-77
2024/03/10 14:23:50;;;;;;;;;9.00;9.00;;;;;;;;5000248;28;45392;-76
2024/03/10 14:26:17;;;;;;;;;7.00;7.00;;;;;;;;5001104;28;45455;-77
2024/03/10 14:28:42;;;;;;;;;6.00;6.00;;;;;;;;5001488;28;45931;-77
2024/03/10 14:31:08;;;;;;;;;9.00;9.00;;;;;;;;5003667;28;46076;-78
2024/03/10 14:33:33;;;;;;;;;8.00;7.00;;;;;;;;5022417;28;45291;-78
2024/03/10 14:36:00;;;;;;;;;7.67;7.00;;;;;;;;5021702;28;45222;-79
2024/03/10 14:38:25;;;;;;;;;11.33;9.67;;;;;;;;5006792;28;45896;-79
2024/03/10 14:40:50;;;;;;;;;10.67;9.00;;;;;;;;4983757;28;45325;-78
2024/03/10 14:43:17;;;;;;;;;10.00;10.00;;;;;;;;5002603;28;45225;-77
2024/03/10 14:45:44;;;;;;;;;16.00;15.33;;;;;;;;5002030;28;45314;-78
2024/03/10 14:48:09;;;;;;;;;9.00;9.00;;;;;;;;5002011;28;45365;-77
2024/03/10 14:50:35;;;;;;;;;7.00;7.00;;;;;;;;5001668;28;45291;-79
2024/03/10 14:53:00;;;;;;;;;8.00;8.00;;;;;;;;4984658;28;45326;-77
2024/03/10 14:55:27;;;;;;;;;5.00;5.00;;;;;;;;4990632;28;45709;-78
2024/03/10 14:57:52;;;;;;;;;6.67;6.67;;;;;;;;4997828;28;45665;-78
2024/03/10 15:00:33;;;;;;;;;7.00;7.00;;;;;;;;5005722;28;45333;-77